createdAt,value
2024-04-19T00:00:43.461Z,7.42
2024-04-19T00:01:43.270Z,7.34
2024-04-19T00:02:43.229Z,7.38
2024-04-19T00:03:43.208Z,7.30
2024-04-19T00:04:43.056Z,7.39
2024-04-19T00:05:42.924Z,7.39
2024-04-19T00:06:42.914Z,7.31
2024-04-19T00:07:42.755Z,7.35
2024-04-19T00:08:42.684Z,7.42
2024-04-19T00:09:42.685Z,7.45
2024-04-19T00:10:42.525Z,7.47
2024-04-19T00:11:42.420Z,7.37
2024-04-19T00:12:42.767Z,7.39
2024-04-19T00:13:42.270Z,7.34
2024-04-19T00:14:42.157Z,7.41
2024-04-19T00:15:42.182Z,7.34
2024-04-19T00:16:42.167Z,7.44
2024-04-19T00:17:41.926Z,7.56
2024-04-19T00:18:41.860Z,7.55
2024-04-19T00:19:41.738Z,7.59
2024-04-19T00:20:41.653Z,7.60
2024-04-19T00:21:41.616Z,7.56
2024-04-19T00:22:41.495Z,7.53
2024-04-19T00:23:41.403Z,7.49
2024-04-19T00:24:41.372Z,7.56
2024-04-19T00:25:41.227Z,7.59
2024-04-19T00:26:41.146Z,7.56
2024-04-19T00:27:41.159Z,7.52
2024-04-19T00:28:40.973Z,7.59
2024-04-19T00:29:40.896Z,7.53
2024-04-19T00:30:40.823Z,7.67
2024-04-19T00:31:41.168Z,7.67
2024-04-19T00:32:40.903Z,7.68
2024-04-19T00:33:40.811Z,7.70
2024-04-19T00:34:40.640Z,7.72
2024-04-19T00:35:40.402Z,7.67
2024-04-19T00:36:40.306Z,7.67
2024-04-19T00:37:40.225Z,7.57
2024-04-19T00:38:40.136Z,7.56
2024-04-19T00:39:42.718Z,7.57
2024-04-19T00:40:40.319Z,7.55
2024-04-19T00:41:39.877Z,7.57
2024-04-19T00:42:39.832Z,7.52
2024-04-19T00:43:39.713Z,7.49
2024-04-19T00:44:39.619Z,7.52
2024-04-19T00:45:39.539Z,7.55
2024-04-19T00:46:39.557Z,7.57
2024-04-19T00:47:39.455Z,7.57
2024-04-19T00:48:39.317Z,7.56
2024-04-19T00:49:39.725Z,7.63
2024-04-19T00:50:39.114Z,7.68
2024-04-19T00:51:39.068Z,7.56
2024-04-19T00:52:38.939Z,7.55
2024-04-19T00:53:38.859Z,7.56
2024-04-19T00:54:38.806Z,7.56
2024-04-19T00:55:38.694Z,7.60
2024-04-19T00:56:38.600Z,7.68
2024-04-19T00:57:38.569Z,7.68
2024-04-19T00:58:38.439Z,7.62
2024-04-19T00:59:38.349Z,7.62
2024-04-19T01:00:38.870Z,7.62
2024-04-19T01:01:38.247Z,7.59
2024-04-19T01:02:38.096Z,7.68
2024-04-19T01:03:38.159Z,7.63
2024-04-19T01:04:37.931Z,7.68
2024-04-19T01:05:37.841Z,7.56
2024-04-19T01:06:37.806Z,7.55
2024-04-19T01:07:37.823Z,7.56
2024-04-19T01:08:37.609Z,7.49
2024-04-19T01:09:37.586Z,7.55
2024-04-19T01:10:37.432Z,7.48
2024-04-19T01:11:37.333Z,7.53
2024-04-19T01:12:37.267Z,7.67
2024-04-19T01:13:37.163Z,7.68
2024-04-19T01:14:37.131Z,7.59
2024-04-19T01:15:37.066Z,7.59
2024-04-19T01:16:36.918Z,7.57
2024-04-19T01:17:36.904Z,7.60
2024-04-19T01:18:36.795Z,7.52
2024-04-19T01:19:36.661Z,7.57
2024-04-19T01:20:36.589Z,7.49
2024-04-19T01:21:36.544Z,7.52
2024-04-19T01:22:36.404Z,7.44
2024-04-19T01:23:36.320Z,7.47
2024-04-19T01:24:36.242Z,7.47
2024-04-19T01:25:36.151Z,7.45
2024-04-19T01:26:36.084Z,7.49
2024-04-19T01:27:36.013Z,7.56
2024-04-19T01:28:35.914Z,7.52
2024-04-19T01:29:35.827Z,7.53
2024-04-19T01:30:35.763Z,7.56
2024-04-19T01:31:35.638Z,7.57
2024-04-19T01:32:35.648Z,7.49
2024-04-19T01:33:35.594Z,7.56
2024-04-19T01:34:35.390Z,7.53
2024-04-19T01:35:35.346Z,7.55
2024-04-19T01:36:35.243Z,7.55
2024-04-19T01:37:35.142Z,7.52
2024-04-19T01:38:35.054Z,7.59
2024-04-19T01:39:35.025Z,7.53
2024-04-19T01:40:34.898Z,7.56
2024-04-19T01:41:34.805Z,7.56
2024-04-19T01:42:34.981Z,7.56
2024-04-19T01:43:34.633Z,7.63
2024-04-19T01:44:34.548Z,7.68
2024-04-19T01:45:34.504Z,7.67
2024-04-19T01:46:34.372Z,7.57
2024-04-19T01:47:34.385Z,7.75
2024-04-19T01:48:34.228Z,7.63
2024-04-19T01:49:34.119Z,7.70
2024-04-19T01:50:34.033Z,7.70
2024-04-19T01:51:34.071Z,7.67
2024-04-19T01:52:33.877Z,7.59
2024-04-19T01:53:33.783Z,7.60
2024-04-19T01:54:33.728Z,7.64
2024-04-19T01:55:33.777Z,7.67
2024-04-19T01:56:33.550Z,7.73
2024-04-19T01:57:33.471Z,7.72
2024-04-19T01:58:33.461Z,7.68
2024-04-19T01:59:33.270Z,7.72
2024-04-19T02:00:33.276Z,7.68
2024-04-19T02:01:33.158Z,7.63
2024-04-19T02:02:33.014Z,7.67
2024-04-19T02:03:32.948Z,7.68
2024-04-19T02:04:33.352Z,7.64
2024-04-19T02:05:32.761Z,7.67
2024-04-19T02:06:32.709Z,7.68
2024-04-19T02:07:32.592Z,7.55
2024-04-19T02:08:32.707Z,7.56
2024-04-19T02:09:32.439Z,7.63
2024-04-19T02:10:32.338Z,7.68
2024-04-19T02:11:32.271Z,7.64
2024-04-19T02:12:32.210Z,7.62
2024-04-19T02:13:32.083Z,7.55
2024-04-19T02:14:32.016Z,7.55
2024-04-19T02:15:31.945Z,7.56
2024-04-19T02:16:31.827Z,7.56
2024-04-19T02:17:32.016Z,7.60
2024-04-19T02:18:31.949Z,7.62
2024-04-19T02:19:31.679Z,7.55
2024-04-19T02:20:31.548Z,7.57
2024-04-19T02:21:31.464Z,7.55
2024-04-19T02:22:31.321Z,7.44
2024-04-19T02:23:31.242Z,7.41
2024-04-19T02:24:31.204Z,7.45
2024-04-19T02:25:31.072Z,7.45
2024-04-19T02:26:30.988Z,7.39
2024-04-19T02:27:30.922Z,7.37
2024-04-19T02:28:30.816Z,7.37
2024-04-19T02:29:30.777Z,7.39
2024-04-19T02:30:31.188Z,7.38
2024-04-19T02:31:30.585Z,7.48
2024-04-19T02:32:30.508Z,7.59
2024-04-19T02:33:30.561Z,7.56
2024-04-19T02:34:30.303Z,7.52
2024-04-19T02:35:30.229Z,7.60
2024-04-19T02:36:30.369Z,7.60
2024-04-19T02:37:30.095Z,7.62
2024-04-19T02:38:29.964Z,7.55
2024-04-19T02:39:29.927Z,7.59
2024-04-19T02:40:29.808Z,7.49
2024-04-19T02:41:29.722Z,7.55
2024-04-19T02:42:29.639Z,7.52
2024-04-19T02:43:29.547Z,7.57
2024-04-19T02:44:29.460Z,7.62
2024-04-19T02:45:29.404Z,7.67
2024-04-19T02:46:29.442Z,7.68
2024-04-19T02:47:29.214Z,7.62
2024-04-19T02:48:29.138Z,7.73
2024-04-19T02:49:29.038Z,7.67
2024-04-19T02:50:28.951Z,7.56
2024-04-19T02:51:28.929Z,7.62
2024-04-19T02:52:28.780Z,7.67
2024-04-19T02:53:28.848Z,7.62
2024-04-19T02:54:28.685Z,7.63
2024-04-19T02:55:28.530Z,7.64
2024-04-19T02:56:28.442Z,7.60
2024-04-19T02:57:28.378Z,7.59
2024-04-19T02:58:28.288Z,7.60
2024-04-19T02:59:28.188Z,7.67
2024-04-19T03:00:28.154Z,7.60
2024-04-19T03:01:28.087Z,7.59
2024-04-19T03:02:27.955Z,7.64
2024-04-19T03:03:27.963Z,7.56
2024-04-19T03:04:27.910Z,7.67
2024-04-19T03:05:27.752Z,7.68
2024-04-19T03:06:27.654Z,7.64
2024-04-19T03:07:27.524Z,7.57
2024-04-19T03:08:27.445Z,7.68
2024-04-19T03:09:29.982Z,7.73
2024-04-19T03:10:27.256Z,7.72
2024-04-19T03:11:27.205Z,7.60
2024-04-19T03:12:27.122Z,7.67
2024-04-19T03:13:27.050Z,7.67
2024-04-19T03:14:26.919Z,7.68
2024-04-19T03:15:26.868Z,7.70
2024-04-19T03:16:26.774Z,7.63
2024-04-19T03:17:27.069Z,7.67
2024-04-19T03:18:27.159Z,7.70
2024-04-19T03:19:26.491Z,7.57
2024-04-19T03:20:26.402Z,7.68
2024-04-19T03:21:26.324Z,7.64
2024-04-19T03:22:26.291Z,7.64
2024-04-19T03:23:26.144Z,7.63
2024-04-19T03:24:26.107Z,7.53
2024-04-19T03:25:25.976Z,7.56
2024-04-19T03:26:25.949Z,7.52
2024-04-19T03:27:25.867Z,7.41
2024-04-19T03:28:25.826Z,7.48
2024-04-19T03:29:25.632Z,7.47
2024-04-19T03:30:25.624Z,7.42
2024-04-19T03:31:25.460Z,7.48
2024-04-19T03:32:25.465Z,7.53
2024-04-19T03:33:25.411Z,7.48
2024-04-19T03:34:25.280Z,7.48
2024-04-19T03:35:25.516Z,7.52
2024-04-19T03:36:25.082Z,7.53
2024-04-19T03:37:24.948Z,7.57
2024-04-19T03:38:24.874Z,7.48
2024-04-19T03:39:24.831Z,7.52
2024-04-19T03:40:24.945Z,7.48
2024-04-19T03:41:24.610Z,7.48
2024-04-19T03:42:24.534Z,7.53
2024-04-19T03:43:24.448Z,7.42
2024-04-19T03:44:24.354Z,7.57
2024-04-19T03:45:24.297Z,7.47
2024-04-19T03:46:24.183Z,7.42
2024-04-19T03:47:24.335Z,7.52
2024-04-19T03:48:24.431Z,7.48
2024-04-19T03:49:23.935Z,7.48
2024-04-19T03:50:23.955Z,7.52
2024-04-19T03:51:23.781Z,7.49
2024-04-19T03:52:23.675Z,7.53
2024-04-19T03:53:23.590Z,7.47
2024-04-19T03:54:23.602Z,7.47
2024-04-19T03:55:23.450Z,7.49
2024-04-19T03:56:25.209Z,7.56
2024-04-19T03:57:23.280Z,7.53
2024-04-19T03:58:23.164Z,7.53
2024-04-19T03:59:23.083Z,7.57
2024-04-19T04:00:23.014Z,7.67
2024-04-19T04:01:22.988Z,7.63
2024-04-19T04:02:23.582Z,7.63
2024-04-19T04:03:22.744Z,7.73
2024-04-19T04:04:22.673Z,7.60
2024-04-19T04:05:22.572Z,7.63
2024-04-19T04:06:22.493Z,7.57
2024-04-19T04:07:22.399Z,7.70
2024-04-19T04:08:22.309Z,7.57
2024-04-19T04:09:22.246Z,7.56
2024-04-19T04:10:22.160Z,7.56
2024-04-19T04:11:22.079Z,7.57
2024-04-19T04:12:21.979Z,7.57
2024-04-19T04:13:21.896Z,7.49
2024-04-19T04:14:21.798Z,7.59
2024-04-19T04:15:21.727Z,7.57
2024-04-19T04:16:21.629Z,7.55
2024-04-19T04:17:21.631Z,7.57
2024-04-19T04:18:21.539Z,7.56
2024-04-19T04:19:21.456Z,7.55
2024-04-19T04:20:21.311Z,7.60
2024-04-19T04:21:21.213Z,7.59
2024-04-19T04:22:21.129Z,7.53
2024-04-19T04:23:21.044Z,7.52
2024-04-19T04:24:20.957Z,7.55
2024-04-19T04:25:20.871Z,7.57
2024-04-19T04:26:20.827Z,7.56
2024-04-19T04:27:21.123Z,7.62
2024-04-19T04:28:20.607Z,7.57
2024-04-19T04:29:20.679Z,7.60
2024-04-19T04:30:20.455Z,7.67
2024-04-19T04:31:20.380Z,7.68
2024-04-19T04:32:20.310Z,7.67
2024-04-19T04:33:20.206Z,7.60
2024-04-19T04:34:20.105Z,7.56
2024-04-19T04:35:20.038Z,7.72
2024-04-19T04:36:19.955Z,7.62
2024-04-19T04:37:19.843Z,7.64
2024-04-19T04:38:19.771Z,7.67
2024-04-19T04:39:19.729Z,7.64
2024-04-19T04:40:19.744Z,7.60
2024-04-19T04:41:19.502Z,7.64
2024-04-19T04:42:19.446Z,7.56
2024-04-19T04:43:19.589Z,7.56
2024-04-19T04:44:19.651Z,7.52
2024-04-19T04:45:19.218Z,7.55
2024-04-19T04:46:19.088Z,7.52
2024-04-19T04:47:19.029Z,7.49
2024-04-19T04:48:19.107Z,7.49
2024-04-19T04:49:18.824Z,7.45
2024-04-19T04:50:18.747Z,7.37
2024-04-19T04:51:18.669Z,7.42
2024-04-19T04:52:18.565Z,7.37
2024-04-19T04:53:18.488Z,7.35
2024-04-19T04:54:18.462Z,7.34
2024-04-19T04:55:18.326Z,7.30
2024-04-19T04:56:18.235Z,7.20
2024-04-19T04:57:18.174Z,7.16
2024-04-19T04:58:18.065Z,7.20
2024-04-19T04:59:17.982Z,7.26
2024-04-19T05:00:17.989Z,7.16
2024-04-19T05:01:17.828Z,7.17
2024-04-19T05:02:17.715Z,7.11
2024-04-19T05:03:17.667Z,7.17
2024-04-19T05:04:17.554Z,7.16
2024-04-19T05:05:17.462Z,7.09
2024-04-19T05:06:17.380Z,7.11
2024-04-19T05:07:17.535Z,7.11
2024-04-19T05:08:17.219Z,7.02
2024-04-19T05:09:17.191Z,7.08
2024-04-19T05:10:17.046Z,7.01
2024-04-19T05:11:17.011Z,7.09
2024-04-19T05:12:16.883Z,7.08
2024-04-19T05:13:16.782Z,7.08
2024-04-19T05:14:16.695Z,7.19
2024-04-19T05:15:16.681Z,7.16
2024-04-19T05:16:16.526Z,7.19
2024-04-19T05:17:16.502Z,7.09
2024-04-19T05:18:16.435Z,7.01
2024-04-19T05:19:16.308Z,7.03
2024-04-19T05:20:16.177Z,6.96
2024-04-19T05:21:16.119Z,7.05
2024-04-19T05:22:16.004Z,6.93
2024-04-19T05:23:16.264Z,7.06
2024-04-19T05:24:15.857Z,7.03
2024-04-19T05:25:15.843Z,6.98
2024-04-19T05:26:15.693Z,6.99
2024-04-19T05:27:15.617Z,7.02
2024-04-19T05:28:15.490Z,6.94
2024-04-19T05:29:15.406Z,6.93
2024-04-19T05:30:15.374Z,6.88
2024-04-19T05:31:15.233Z,6.96
2024-04-19T05:32:15.256Z,7.01
2024-04-19T05:33:15.436Z,6.96
2024-04-19T05:34:14.975Z,6.99
2024-04-19T05:35:14.909Z,6.91
2024-04-19T05:36:14.825Z,6.83
2024-04-19T05:37:14.732Z,6.87
2024-04-19T05:38:14.667Z,6.91
2024-04-19T05:39:14.562Z,6.88
2024-04-19T05:40:14.460Z,6.98
2024-04-19T05:41:14.370Z,6.83
2024-04-19T05:42:14.616Z,6.84
2024-04-19T05:43:14.198Z,6.84
2024-04-19T05:44:14.113Z,6.87
2024-04-19T05:45:15.247Z,6.72
2024-04-19T05:46:13.939Z,6.75
2024-04-19T05:47:13.885Z,6.78
2024-04-19T05:48:15.333Z,6.86
2024-04-19T05:49:13.732Z,6.94
2024-04-19T05:50:13.595Z,6.78
2024-04-19T05:51:13.510Z,6.88
2024-04-19T05:52:13.425Z,6.88
2024-04-19T05:53:13.344Z,6.84
2024-04-19T05:54:13.251Z,6.83
2024-04-19T05:56:13.086Z,6.88
2024-04-19T05:57:13.000Z,6.88
2024-04-19T05:58:12.958Z,6.81
2024-04-19T05:59:12.820Z,6.96
2024-04-19T06:00:12.744Z,6.87
2024-04-19T06:01:13.037Z,6.75
2024-04-19T06:02:12.663Z,6.83
2024-04-19T06:03:12.561Z,6.70
2024-04-19T06:04:12.409Z,6.76
2024-04-19T06:05:12.311Z,6.76
2024-04-19T06:06:13.774Z,6.86
2024-04-19T06:07:12.140Z,6.86
2024-04-19T06:08:12.052Z,6.78
2024-04-19T06:09:11.967Z,6.75
2024-04-19T06:10:11.875Z,6.72
2024-04-19T06:11:11.803Z,6.72
2024-04-19T06:12:11.713Z,6.72
2024-04-19T06:13:11.621Z,6.72
2024-04-19T06:14:11.554Z,6.72
2024-04-19T06:15:11.479Z,6.69
2024-04-19T06:16:11.375Z,6.76
2024-04-19T06:17:11.326Z,6.70
2024-04-19T06:18:11.250Z,6.70
2024-04-19T06:19:11.171Z,6.66
2024-04-19T06:20:11.322Z,6.68
2024-04-19T06:21:10.936Z,6.69
2024-04-19T06:22:10.844Z,6.73
2024-04-19T06:23:10.768Z,6.70
2024-04-19T06:24:10.674Z,6.68
2024-04-19T06:25:10.590Z,6.65
2024-04-19T06:26:10.502Z,6.75
2024-04-19T06:27:10.571Z,6.69
2024-04-19T06:28:10.331Z,6.75
2024-04-19T06:29:10.247Z,6.73
2024-04-19T06:30:10.188Z,6.70
2024-04-19T06:31:10.186Z,6.68
2024-04-19T06:32:10.106Z,6.65
2024-04-19T06:33:10.169Z,6.72
2024-04-19T06:34:09.845Z,6.70
2024-04-19T06:35:09.735Z,6.75
2024-04-19T06:36:09.649Z,6.73
2024-04-19T06:37:09.559Z,6.76
2024-04-19T06:38:09.771Z,6.65
2024-04-19T06:39:09.393Z,6.66
2024-04-19T06:40:09.449Z,6.55
2024-04-19T06:41:09.268Z,6.59
2024-04-19T06:42:09.128Z,6.68
2024-04-19T06:43:09.092Z,6.72
2024-04-19T06:44:08.964Z,6.65
2024-04-19T06:45:08.895Z,6.68
2024-04-19T06:46:08.797Z,6.66
2024-04-19T06:47:08.702Z,6.75
2024-04-19T06:48:08.686Z,6.68
2024-04-19T06:49:08.575Z,6.72
2024-04-19T06:50:08.443Z,6.73
2024-04-19T06:51:08.360Z,6.70
2024-04-19T06:52:08.312Z,6.76
2024-04-19T06:53:08.186Z,6.73
2024-04-19T06:54:08.099Z,6.72
2024-04-19T06:55:08.008Z,6.76
2024-04-19T06:56:07.924Z,6.75
2024-04-19T06:57:07.901Z,6.83
2024-04-19T06:58:07.834Z,6.70
2024-04-19T06:59:07.671Z,6.70
2024-04-19T07:00:16.432Z,6.55
2024-04-19T07:01:17.552Z,6.50
2024-04-19T07:02:07.470Z,6.68
2024-04-19T07:03:10.161Z,6.63
2024-04-19T07:04:07.334Z,6.52
2024-04-19T07:05:07.247Z,6.63
2024-04-19T07:06:07.067Z,6.55
2024-04-19T07:07:07.037Z,6.55
2024-04-19T07:08:06.890Z,6.55
2024-04-19T07:09:06.809Z,6.57
2024-04-19T07:10:06.779Z,6.60
2024-04-19T07:11:06.640Z,6.51
2024-04-19T07:12:06.558Z,6.52
2024-04-19T07:13:06.636Z,6.59
2024-04-19T07:14:06.388Z,6.60
2024-04-19T07:15:06.292Z,6.55
2024-04-19T07:16:06.209Z,6.55
2024-04-19T07:17:06.142Z,6.52
2024-04-19T07:18:06.065Z,6.73
2024-04-19T07:19:05.948Z,6.72
2024-04-19T07:20:05.861Z,6.60
2024-04-19T07:21:05.778Z,6.66
2024-04-19T07:22:05.702Z,6.50
2024-04-19T07:23:05.604Z,6.52
2024-04-19T07:24:05.534Z,6.51
2024-04-19T07:25:05.442Z,6.52
2024-04-19T07:26:05.345Z,6.62
2024-04-19T07:27:05.259Z,6.51
2024-04-19T07:28:05.218Z,6.54
2024-04-19T07:29:05.087Z,6.50
2024-04-19T07:30:05.004Z,6.55
2024-04-19T07:31:04.917Z,6.51
2024-04-19T07:32:04.865Z,6.52
2024-04-19T07:33:04.758Z,6.51
2024-04-19T07:34:04.665Z,6.57
2024-04-19T07:35:04.583Z,6.63
2024-04-19T07:36:04.489Z,6.63
2024-04-19T07:37:04.409Z,6.63
2024-04-19T07:38:04.369Z,6.55
2024-04-19T07:39:04.229Z,6.51
2024-04-19T07:40:04.203Z,6.54
2024-04-19T07:41:04.094Z,6.55
2024-04-19T07:42:03.974Z,6.47
2024-04-19T07:43:03.939Z,6.51
2024-04-19T07:44:03.820Z,6.55
2024-04-19T07:45:03.723Z,6.52
2024-04-19T07:46:03.784Z,6.54
2024-04-19T07:47:03.569Z,6.52
2024-04-19T07:48:03.662Z,6.52
2024-04-19T07:49:03.624Z,6.54
2024-04-19T07:50:03.463Z,6.54
2024-04-19T07:51:03.205Z,6.62
2024-04-19T07:52:03.114Z,6.57
2024-04-19T07:53:03.042Z,6.57
2024-04-19T07:54:02.955Z,6.57
2024-04-19T07:55:02.882Z,6.55
2024-04-19T07:56:02.778Z,6.66
2024-04-19T07:57:02.690Z,6.65
2024-04-19T07:58:02.607Z,6.70
2024-04-19T07:59:02.519Z,6.62
2024-04-19T08:00:02.487Z,6.62
2024-04-19T08:01:02.399Z,6.55
2024-04-19T08:02:02.299Z,6.65
2024-04-19T08:03:02.187Z,6.47
2024-04-19T08:04:04.336Z,6.50
2024-04-19T08:05:02.014Z,6.54
2024-04-19T08:06:01.917Z,6.54
2024-04-19T08:07:01.855Z,6.47
2024-04-19T08:08:01.742Z,6.44
2024-04-19T08:09:01.674Z,6.52
2024-04-19T08:10:01.645Z,6.51
2024-04-19T08:11:01.483Z,6.65
2024-04-19T08:12:01.426Z,6.69
2024-04-19T08:13:01.500Z,6.62
2024-04-19T08:14:01.235Z,6.68
2024-04-19T08:15:01.149Z,6.54
2024-04-19T08:16:01.107Z,6.52
2024-04-19T08:18:00.940Z,6.34
2024-04-19T08:19:00.794Z,6.47
2024-04-19T08:20:00.714Z,6.52
2024-04-19T08:22:00.744Z,6.36
2024-04-19T08:23:00.452Z,6.37
2024-04-19T08:24:00.393Z,6.42
2024-04-19T08:25:00.275Z,6.42
2024-04-19T08:26:00.471Z,6.42
2024-04-19T08:27:00.202Z,6.50
2024-04-19T08:28:00.095Z,6.55
2024-04-19T08:28:59.936Z,6.50
2024-04-19T08:30:00.006Z,6.50
2024-04-19T08:30:59.813Z,6.54
2024-04-19T08:32:00.063Z,6.44
2024-04-19T08:32:59.653Z,6.42
2024-04-19T08:34:01.686Z,6.39
2024-04-19T08:34:59.422Z,6.36
2024-04-19T08:35:59.351Z,6.52
2024-04-19T08:36:59.250Z,6.54
2024-04-19T08:37:59.164Z,6.55
2024-04-19T08:38:59.084Z,6.69
2024-04-19T08:39:58.998Z,6.72
2024-04-19T08:40:58.910Z,6.66
2024-04-19T08:41:58.836Z,6.68
2024-04-19T08:42:58.800Z,6.68
2024-04-19T08:43:58.654Z,6.62
2024-04-19T08:44:58.619Z,6.59
2024-04-19T08:46:02.908Z,6.51
2024-04-19T08:46:58.874Z,6.51
2024-04-19T08:47:58.352Z,6.55
2024-04-19T08:48:58.317Z,6.66
2024-04-19T08:49:58.137Z,6.68
2024-04-19T08:50:58.050Z,6.70
2024-04-19T08:52:07.624Z,6.75
2024-04-19T08:53:13.610Z,6.54
2024-04-19T08:53:57.835Z,6.68
2024-04-19T08:54:57.732Z,6.72
2024-04-19T08:55:57.617Z,6.72
2024-04-19T08:56:57.535Z,6.76
2024-04-19T08:57:57.485Z,6.75
2024-04-19T08:58:57.368Z,6.73
2024-04-19T09:00:04.872Z,6.60
2024-04-19T09:00:57.519Z,6.73
2024-04-19T09:01:57.108Z,6.72
2024-04-19T09:02:57.045Z,6.70
2024-04-19T09:03:57.004Z,6.72
2024-04-19T09:04:56.851Z,6.72
2024-04-19T09:05:56.766Z,6.69
2024-04-19T09:06:56.691Z,6.72
2024-04-19T09:07:56.601Z,6.83
2024-04-19T09:08:56.563Z,6.81
2024-04-19T09:09:57.269Z,6.73
2024-04-19T09:10:56.339Z,6.78
2024-04-19T09:11:56.258Z,6.75
2024-04-19T09:12:56.217Z,6.83
2024-04-19T09:13:56.103Z,6.73
2024-04-19T09:14:56.017Z,6.70
2024-04-19T09:15:57.781Z,6.76
2024-04-19T09:16:55.846Z,6.78
2024-04-19T09:17:55.829Z,6.86
2024-04-19T09:18:55.716Z,6.75
2024-04-19T09:19:55.569Z,6.78
2024-04-19T09:20:55.493Z,6.76
2024-04-19T09:21:55.473Z,6.84
2024-04-19T09:22:55.315Z,6.75
2024-04-19T09:23:55.236Z,6.83
2024-04-19T09:24:55.274Z,6.75
2024-04-19T09:25:55.066Z,6.73
2024-04-19T09:27:00.259Z,6.75
2024-04-19T09:27:54.902Z,6.72
2024-04-19T09:28:54.824Z,6.76
2024-04-19T09:29:55.374Z,6.69
2024-04-19T09:30:54.700Z,6.73
2024-04-19T09:31:54.548Z,6.75
2024-04-19T09:32:54.503Z,6.68
2024-04-19T09:33:54.382Z,6.73
2024-04-19T09:34:54.287Z,6.93
2024-04-19T09:35:54.218Z,6.78
2024-04-19T09:36:54.165Z,6.72
2024-04-19T09:37:54.051Z,6.69
2024-04-19T09:38:53.944Z,6.68
2024-04-19T09:39:53.968Z,6.75
2024-04-19T09:40:53.782Z,6.76
2024-04-19T09:41:53.702Z,6.70
2024-04-19T09:42:53.705Z,6.66
2024-04-19T09:43:53.523Z,6.75
2024-04-19T09:44:53.439Z,6.73
2024-04-19T09:45:53.389Z,6.75
2024-04-19T09:46:53.294Z,6.69
2024-04-19T09:47:53.184Z,6.70
2024-04-19T09:48:53.128Z,6.88
2024-04-19T09:49:53.006Z,6.81
2024-04-19T09:50:52.936Z,6.87
2024-04-19T09:51:52.879Z,6.78
2024-04-19T09:52:52.898Z,6.93
2024-04-19T09:53:52.667Z,6.78
2024-04-19T09:54:52.674Z,6.80
2024-04-19T09:55:52.496Z,6.76
2024-04-19T09:56:52.409Z,6.90
2024-04-19T09:57:52.356Z,6.87
2024-04-19T09:58:52.372Z,6.91
2024-04-19T09:59:52.159Z,6.75
2024-04-19T10:00:52.142Z,6.93
2024-04-19T10:01:52.015Z,6.75
2024-04-19T10:02:51.936Z,6.72
2024-04-19T10:03:51.923Z,6.81
2024-04-19T10:04:51.859Z,6.87
2024-04-19T10:05:51.692Z,6.78
2024-04-19T10:06:51.566Z,6.87
2024-04-19T10:07:51.473Z,6.76
2024-04-19T10:08:51.380Z,6.76
2024-04-19T10:09:51.318Z,6.68
2024-04-19T10:10:51.206Z,6.73
2024-04-19T10:11:51.128Z,6.70
2024-04-19T10:12:51.216Z,6.65
2024-04-19T10:13:50.953Z,6.55
2024-04-19T10:14:50.867Z,6.54
2024-04-19T10:15:50.851Z,6.63
2024-04-19T10:16:50.698Z,6.72
2024-04-19T10:17:50.789Z,6.68
2024-04-19T10:18:50.728Z,6.76
2024-04-19T10:19:54.452Z,6.62
2024-04-19T10:20:50.374Z,6.60
2024-04-19T10:21:50.434Z,6.70
2024-04-19T10:22:50.193Z,6.70
2024-04-19T10:23:50.095Z,6.66
2024-04-19T10:24:50.225Z,6.66
2024-04-19T10:25:49.930Z,6.70
2024-04-19T10:26:49.835Z,6.69
2024-04-19T10:27:49.782Z,6.70
2024-04-19T10:28:49.673Z,6.73
2024-04-19T10:29:49.581Z,6.70
2024-04-19T10:30:49.599Z,6.66
2024-04-19T10:31:49.441Z,6.70
2024-04-19T10:32:49.356Z,6.73
2024-04-19T10:33:49.439Z,6.75
2024-04-19T10:34:49.247Z,6.76
2024-04-19T10:35:49.088Z,6.81
2024-04-19T10:36:49.095Z,6.83
2024-04-19T10:37:48.903Z,6.87
2024-04-19T10:38:48.807Z,6.90
2024-04-19T10:39:48.926Z,6.93
2024-04-19T10:40:48.752Z,6.88
2024-04-19T10:41:48.551Z,6.91
2024-04-19T10:42:48.494Z,6.93
2024-04-19T10:43:48.433Z,6.70
2024-04-19T10:44:48.651Z,6.78
2024-04-19T10:45:48.226Z,6.75
2024-04-19T10:46:48.129Z,6.83
2024-04-19T10:47:48.202Z,6.87
2024-04-19T10:48:48.098Z,6.93
2024-04-19T10:49:47.888Z,6.96
2024-04-19T10:50:47.776Z,6.93
2024-04-19T10:51:47.723Z,6.94
2024-04-19T10:52:47.607Z,6.87
2024-04-19T10:53:47.532Z,6.86
2024-04-19T10:54:47.596Z,6.91
2024-04-19T10:55:47.347Z,6.91
2024-04-19T10:56:47.264Z,7.02
2024-04-19T10:57:47.253Z,6.93
2024-04-19T10:58:47.088Z,6.96
2024-04-19T10:59:47.015Z,7.02
2024-04-19T11:00:47.062Z,7.03
2024-04-19T11:01:46.922Z,7.02
2024-04-19T11:02:46.743Z,7.06
2024-04-19T11:03:46.737Z,7.11
2024-04-19T11:04:46.669Z,7.23
2024-04-19T11:05:46.500Z,7.19
2024-04-19T11:06:46.444Z,7.19
2024-04-19T11:07:46.315Z,7.03
2024-04-19T11:08:46.228Z,7.11
2024-04-19T11:09:46.232Z,7.17
2024-04-19T11:10:46.067Z,7.17
2024-04-19T11:11:46.019Z,7.19
2024-04-19T11:12:46.482Z,7.09
2024-04-19T11:13:45.805Z,7.09
2024-04-19T11:14:45.728Z,7.20
2024-04-19T11:15:52.674Z,7.12
2024-04-19T11:16:45.545Z,7.16
2024-04-19T11:17:48.138Z,7.19
2024-04-19T11:18:45.517Z,7.16
2024-04-19T11:19:45.293Z,7.19
2024-04-19T11:20:48.093Z,7.26
2024-04-19T11:21:45.146Z,7.31
2024-04-19T11:22:45.039Z,7.31
2024-04-19T11:23:44.960Z,7.26
2024-04-19T11:24:44.893Z,7.31
2024-04-19T11:25:44.779Z,7.30
2024-04-19T11:26:45.191Z,7.17
2024-04-19T11:27:44.634Z,7.24
2024-04-19T11:28:44.523Z,7.27
2024-04-19T11:29:44.446Z,7.23
2024-04-19T11:30:44.363Z,7.17
2024-04-19T11:31:44.282Z,7.12
2024-04-19T11:32:44.193Z,7.27
2024-04-19T11:33:44.122Z,7.20
2024-04-19T11:34:44.007Z,7.16
2024-04-19T11:35:43.925Z,7.13
2024-04-19T11:36:43.909Z,7.09
2024-04-19T11:37:43.774Z,7.17
2024-04-19T11:39:26.163Z,7.13
2024-04-19T11:40:26.066Z,7.11
2024-04-19T11:41:26.011Z,7.16
2024-04-19T11:42:25.932Z,7.13
2024-04-19T11:43:25.801Z,7.17
2024-04-19T11:44:25.727Z,7.21
2024-04-19T11:45:25.675Z,7.20
2024-04-19T11:46:25.708Z,7.16
2024-04-19T11:47:25.587Z,7.26
2024-04-19T11:48:25.600Z,7.30
2024-04-19T11:49:25.313Z,7.13
2024-04-19T11:50:25.210Z,7.16
2024-04-19T11:51:25.151Z,7.12
2024-04-19T11:52:25.037Z,7.17
2024-04-19T11:53:25.231Z,7.31
2024-04-19T11:54:24.899Z,7.11
2024-04-19T11:55:25.032Z,7.16
2024-04-19T11:56:24.730Z,7.21
2024-04-19T11:57:24.620Z,7.16
2024-04-19T11:58:24.587Z,7.20
2024-04-19T11:59:24.440Z,7.13
2024-04-19T12:00:24.402Z,7.26
2024-04-19T12:01:24.298Z,7.17
2024-04-19T12:02:24.194Z,7.31
2024-04-19T12:03:24.185Z,7.30
2024-04-19T12:04:24.074Z,7.26
2024-04-19T12:05:24.006Z,7.27
2024-04-19T12:06:23.975Z,7.26
2024-04-19T12:07:23.759Z,7.19
2024-04-19T12:08:23.764Z,7.29
2024-04-19T12:09:23.651Z,7.13
2024-04-19T12:10:25.066Z,7.26
2024-04-19T12:11:23.477Z,7.27
2024-04-19T12:15:13.253Z,7.29
2024-04-19T12:16:04.667Z,7.17
2024-04-19T12:17:26.183Z,7.31
2024-04-19T12:18:23.084Z,7.20
2024-04-19T12:19:23.025Z,7.29
2024-04-19T12:20:35.688Z,7.29
2024-04-19T12:21:23.687Z,7.13
2024-04-19T12:22:24.230Z,7.21
2024-04-19T12:23:23.941Z,7.19
2024-04-19T12:24:22.688Z,7.12
2024-04-19T12:25:23.018Z,7.16
2024-04-19T12:26:22.513Z,7.16
2024-04-19T12:27:22.338Z,7.30
2024-04-19T12:28:22.104Z,7.19
2024-04-19T12:29:22.020Z,7.26
2024-04-19T12:30:21.865Z,7.30
2024-04-19T12:31:21.712Z,7.21
2024-04-19T12:32:21.673Z,7.24
2024-04-19T12:33:21.666Z,7.30
2024-04-19T12:34:21.459Z,7.34
2024-04-19T12:35:21.372Z,7.37
2024-04-19T12:36:21.421Z,7.49
2024-04-19T12:37:21.205Z,7.35
2024-04-19T12:38:21.122Z,7.44
2024-04-19T12:39:21.059Z,7.34
2024-04-19T12:40:20.960Z,7.34
2024-04-19T12:41:20.875Z,7.35
2024-04-19T12:42:20.841Z,7.49
2024-04-19T12:43:20.692Z,7.38
2024-04-19T12:44:20.668Z,7.35
2024-04-19T12:45:20.557Z,7.26
2024-04-19T12:46:20.445Z,7.39
2024-04-19T12:47:20.416Z,7.34
2024-04-19T12:48:20.442Z,7.34
2024-04-19T12:49:20.224Z,7.35
2024-04-19T12:50:20.310Z,7.34
2024-04-19T12:51:20.033Z,7.39
2024-04-19T12:52:19.928Z,7.37
2024-04-19T12:53:19.863Z,7.37
2024-04-19T12:54:19.986Z,7.38
2024-04-19T12:55:19.672Z,7.44
2024-04-19T12:56:19.853Z,7.45
2024-04-19T12:57:19.550Z,7.44
2024-04-19T12:58:19.634Z,7.52
2024-04-19T12:59:19.333Z,7.49
2024-04-19T13:00:19.296Z,7.56
2024-04-19T13:01:19.418Z,7.52
2024-04-19T13:02:19.119Z,7.53
2024-04-19T13:03:19.229Z,7.59
2024-04-19T13:04:18.963Z,7.53
2024-04-19T13:05:18.864Z,7.56
2024-04-19T13:06:18.938Z,7.59
2024-04-19T13:07:18.660Z,7.53
2024-04-19T13:08:18.562Z,7.64
2024-04-19T13:09:18.489Z,7.68
2024-04-19T13:10:18.386Z,7.68
2024-04-19T13:11:18.344Z,7.73
2024-04-19T13:12:18.213Z,7.79
2024-04-19T13:13:18.597Z,7.81
2024-04-19T13:14:18.044Z,7.70
2024-04-19T13:15:17.966Z,7.76
2024-04-19T13:16:17.954Z,7.79
2024-04-19T13:17:17.801Z,7.90
2024-04-19T13:18:17.702Z,7.88
2024-04-19T13:19:17.619Z,7.85
2024-04-19T13:20:17.583Z,7.85
2024-04-19T13:21:17.447Z,7.83
2024-04-19T13:22:17.370Z,7.97
2024-04-19T13:23:17.282Z,7.88
2024-04-19T13:24:19.541Z,7.88